createdAt,value
2023-05-18T00:00:17.091Z,9.97
2023-05-18T00:02:44.164Z,9.90
2023-05-18T00:05:14.323Z,10.93
2023-05-18T00:07:41.299Z,7.67
2023-05-18T00:10:09.184Z,9.87
2023-05-18T00:12:36.192Z,7.73
2023-05-18T00:15:03.778Z,10.47
2023-05-18T00:17:31.765Z,12.07
2023-05-18T00:19:58.754Z,6.73
2023-05-18T00:22:26.462Z,17.00
2023-05-18T00:24:53.424Z,12.40
2023-05-18T00:27:20.464Z,6.27
2023-05-18T00:29:47.439Z,13.27
2023-05-18T00:32:14.394Z,11.80
2023-05-18T00:34:41.465Z,10.73
2023-05-18T00:37:08.508Z,10.00
2023-05-18T00:39:35.651Z,10.27
2023-05-18T00:42:03.201Z,7.27
2023-05-18T00:44:30.162Z,12.00
2023-05-18T00:46:57.099Z,7.47
2023-05-18T00:49:24.062Z,10.00
2023-05-18T00:51:54.613Z,9.13
2023-05-18T00:54:21.586Z,12.57
2023-05-18T00:56:48.844Z,7.70
2023-05-18T00:59:16.216Z,8.33
2023-05-18T01:01:46.749Z,7.30
2023-05-18T01:04:16.555Z,9.57
2023-05-18T01:06:43.969Z,8.07
2023-05-18T01:09:12.391Z,8.90
2023-05-18T01:12:13.013Z,8.97
2023-05-18T01:14:58.411Z,11.90
2023-05-18T01:17:43.565Z,10.07
2023-05-18T01:20:45.994Z,10.43
2023-05-18T01:23:35.608Z,15.80
2023-05-18T01:26:17.440Z,10.60
2023-05-18T01:28:46.919Z,11.13
2023-05-18T01:31:16.125Z,10.67
2023-05-18T01:33:44.261Z,11.63
2023-05-18T01:36:11.409Z,11.57
2023-05-18T01:38:41.740Z,8.60
2023-05-18T01:41:23.259Z,9.37
2023-05-18T01:44:06.523Z,11.07
2023-05-18T01:46:54.916Z,8.73
2023-05-18T01:49:24.979Z,8.57
2023-05-18T01:51:54.160Z,9.80
2023-05-18T01:54:22.463Z,9.17
2023-05-18T01:56:52.191Z,11.60
2023-05-18T01:59:19.428Z,10.57
2023-05-18T02:01:46.442Z,9.73
2023-05-18T02:04:15.791Z,8.93
2023-05-18T02:06:42.941Z,8.40
2023-05-18T02:09:09.865Z,11.73
2023-05-18T02:11:36.840Z,10.73
2023-05-18T02:14:03.738Z,11.90
2023-05-18T02:16:30.741Z,7.30
2023-05-18T02:18:58.257Z,7.47
2023-05-18T02:21:26.292Z,11.93
2023-05-18T02:23:53.372Z,11.03
2023-05-18T02:26:20.956Z,13.87
2023-05-18T02:28:52.529Z,9.67
2023-05-18T02:31:19.493Z,6.77
2023-05-18T02:33:46.450Z,11.13
2023-05-18T02:36:14.593Z,12.90
2023-05-18T02:38:43.448Z,9.63
2023-05-18T02:41:11.551Z,8.27
2023-05-18T02:43:38.524Z,14.87
2023-05-18T02:46:06.687Z,12.03
2023-05-18T02:48:34.238Z,7.43
2023-05-18T02:51:01.108Z,7.80
2023-05-18T02:53:28.074Z,8.73
2023-05-18T02:56:03.389Z,12.13
2023-05-18T02:58:40.350Z,8.47
2023-05-18T03:01:14.800Z,9.40
2023-05-18T03:03:48.076Z,13.63
2023-05-18T03:06:16.110Z,8.73
2023-05-18T03:08:44.175Z,6.73
2023-05-18T03:11:12.936Z,11.37
2023-05-18T03:13:39.938Z,10.43
2023-05-18T03:16:07.061Z,8.30
2023-05-18T03:18:34.858Z,10.33
2023-05-18T03:21:05.313Z,8.60
2023-05-18T03:23:32.400Z,7.70
2023-05-18T03:25:59.361Z,12.17
2023-05-18T03:28:29.227Z,12.83
2023-05-18T03:30:56.291Z,6.20
2023-05-18T03:33:23.389Z,7.20
2023-05-18T03:35:52.245Z,26.20
2023-05-18T03:38:19.576Z,30.33
2023-05-18T03:40:52.312Z,44.60
2023-05-18T03:43:19.296Z,67.47
2023-05-18T03:45:47.378Z,20.53
2023-05-18T03:48:14.336Z,27.60
2023-05-18T03:50:41.291Z,24.47
2023-05-18T03:53:09.497Z,18.53
2023-05-18T03:55:36.411Z,21.67
2023-05-18T03:58:03.533Z,10.13
2023-05-18T04:00:32.649Z,13.57
2023-05-18T04:03:00.615Z,7.70
2023-05-18T04:05:28.455Z,12.77
2023-05-18T04:07:57.427Z,19.03
2023-05-18T04:10:24.465Z,20.70
2023-05-18T04:12:51.694Z,23.53
2023-05-18T04:15:18.704Z,24.53
2023-05-18T04:17:46.001Z,31.67
2023-05-18T04:20:14.606Z,47.90
2023-05-18T04:22:48.102Z,19.20
2023-05-18T04:25:16.295Z,16.67
2023-05-18T04:27:45.474Z,13.30
2023-05-18T04:30:13.547Z,18.00
2023-05-18T04:32:43.227Z,23.77
2023-05-18T04:35:11.996Z,16.33
2023-05-18T04:37:41.988Z,19.60
2023-05-18T04:40:17.537Z,24.93
2023-05-18T04:42:47.985Z,23.20
2023-05-18T04:45:20.436Z,14.97
2023-05-18T04:47:53.630Z,20.10
2023-05-18T04:50:25.745Z,23.23
2023-05-18T04:52:53.569Z,13.13
2023-05-18T04:55:26.023Z,17.77
2023-05-18T04:58:00.762Z,16.77
2023-05-18T05:00:29.984Z,17.15
2023-05-18T05:02:58.588Z,8.85
2023-05-18T05:05:27.803Z,9.75
2023-05-18T05:07:56.047Z,13.27
2023-05-18T05:10:23.438Z,8.13
2023-05-18T05:12:51.473Z,9.32
2023-05-18T05:15:19.486Z,10.05
2023-05-18T05:17:48.098Z,9.75
2023-05-18T05:20:15.554Z,12.88
2023-05-18T05:22:42.969Z,10.82
2023-05-18T05:25:12.187Z,9.90
2023-05-18T05:27:39.945Z,8.38
2023-05-18T05:30:07.757Z,10.52
2023-05-18T05:32:36.952Z,7.55
2023-05-18T05:35:06.082Z,7.75
2023-05-18T05:37:35.584Z,11.20
2023-05-18T05:40:06.138Z,12.90
2023-05-18T05:42:37.205Z,11.07
2023-05-18T05:45:04.768Z,19.05
2023-05-18T05:47:34.780Z,11.05
2023-05-18T05:50:01.815Z,11.00
2023-05-18T05:52:29.112Z,10.07
2023-05-18T05:54:56.658Z,8.95
2023-05-18T05:57:23.893Z,11.88
2023-05-18T05:59:51.528Z,8.25
2023-05-18T06:02:18.753Z,10.63
2023-05-18T06:04:46.064Z,8.43
2023-05-18T06:07:13.069Z,9.90
2023-05-18T06:09:40.511Z,6.63
2023-05-18T06:12:08.003Z,7.28
2023-05-18T06:14:34.971Z,10.32
2023-05-18T06:17:02.503Z,4.35
2023-05-18T06:19:29.599Z,8.52
2023-05-18T06:21:56.936Z,8.55
2023-05-18T06:24:25.619Z,8.57
2023-05-18T06:27:24.755Z,6.22
2023-05-18T06:30:11.149Z,10.70
2023-05-18T06:32:57.449Z,6.93
2023-05-18T06:35:26.394Z,6.00
2023-05-18T06:37:53.313Z,8.30
2023-05-18T06:40:20.529Z,5.63
2023-05-18T06:42:47.688Z,6.65
2023-05-18T06:45:40.766Z,7.18
2023-05-18T06:48:30.454Z,9.18
2023-05-18T06:50:57.509Z,8.02
2023-05-18T06:53:24.545Z,9.38
2023-05-18T06:55:51.547Z,7.03
2023-05-18T06:58:18.540Z,6.95
2023-05-18T07:00:46.219Z,7.43
2023-05-18T07:03:13.325Z,7.40
2023-05-18T07:05:40.370Z,5.63
2023-05-18T07:08:07.656Z,11.20
2023-05-18T07:10:35.872Z,9.23
2023-05-18T07:13:03.018Z,5.82
2023-05-18T07:15:30.415Z,10.00
2023-05-18T07:17:57.637Z,7.18
2023-05-18T07:20:26.325Z,7.63
2023-05-18T07:22:55.277Z,9.93
2023-05-18T07:25:23.176Z,6.80
2023-05-18T07:27:52.201Z,8.80
2023-05-18T07:30:19.184Z,6.32
2023-05-18T07:32:46.313Z,7.78
2023-05-18T07:35:13.542Z,7.50
2023-05-18T07:37:40.521Z,7.70
2023-05-18T07:40:09.854Z,8.55
2023-05-18T07:42:37.845Z,6.07
2023-05-18T07:45:05.312Z,8.48
2023-05-18T07:47:32.447Z,8.35
2023-05-18T07:49:59.457Z,9.05
2023-05-18T07:52:26.548Z,7.80
2023-05-18T07:54:55.075Z,6.85
2023-05-18T07:57:22.034Z,7.68
2023-05-18T07:59:49.057Z,7.95
2023-05-18T08:02:17.531Z,8.55
2023-05-18T08:04:44.483Z,7.85
2023-05-18T08:07:12.637Z,7.97
2023-05-18T08:09:40.869Z,8.13
2023-05-18T08:12:08.368Z,9.00
2023-05-18T08:14:35.313Z,8.13
2023-05-18T08:17:04.862Z,8.70
2023-05-18T08:19:32.072Z,10.55
2023-05-18T08:21:59.237Z,5.45
2023-05-18T08:24:26.252Z,6.03
2023-05-18T08:26:53.378Z,11.35
2023-05-18T08:29:20.785Z,7.03
2023-05-18T08:31:49.313Z,8.05
2023-05-18T08:34:16.754Z,6.90
2023-05-18T08:36:45.744Z,9.27
2023-05-18T08:39:15.815Z,7.32
2023-05-18T08:42:05.041Z,8.90
2023-05-18T08:44:42.538Z,8.10
2023-05-18T08:47:15.357Z,8.65
2023-05-18T08:49:42.781Z,7.20
2023-05-18T08:52:10.471Z,6.38
2023-05-18T08:54:38.501Z,5.28
2023-05-18T08:57:11.789Z,9.63
2023-05-18T08:59:43.525Z,9.32
2023-05-18T09:02:10.661Z,7.82
2023-05-18T09:04:38.797Z,8.40
2023-05-18T09:07:07.333Z,9.82
2023-05-18T09:09:36.021Z,9.32
2023-05-18T09:12:03.398Z,8.30
2023-05-18T09:14:34.281Z,6.78
2023-05-18T09:17:01.199Z,6.82
2023-05-18T09:19:28.672Z,6.47
2023-05-18T09:21:55.757Z,12.00
2023-05-18T09:24:24.735Z,9.23
2023-05-18T09:26:52.114Z,10.75
2023-05-18T09:29:20.970Z,7.43
2023-05-18T09:31:48.528Z,9.27
2023-05-18T09:34:16.486Z,7.10
2023-05-18T09:36:49.545Z,8.27
2023-05-18T09:39:16.499Z,10.07
2023-05-18T09:41:43.555Z,11.27
2023-05-18T09:44:12.553Z,9.18
2023-05-18T09:46:40.463Z,11.90
2023-05-18T09:49:08.259Z,5.43
2023-05-18T09:51:36.630Z,9.25
2023-05-18T09:54:07.087Z,7.63
2023-05-18T09:56:36.656Z,10.52
2023-05-18T09:59:12.305Z,7.45
2023-05-18T10:02:02.840Z,9.18
2023-05-18T10:04:43.424Z,9.98
2023-05-18T10:07:15.870Z,10.73
2023-05-18T10:09:44.739Z,10.57
2023-05-18T10:12:18.641Z,8.07
2023-05-18T10:14:46.315Z,11.50
2023-05-18T10:17:16.175Z,9.18
2023-05-18T10:19:45.221Z,7.97
2023-05-18T10:22:19.517Z,8.63
2023-05-18T10:24:51.723Z,7.88
2023-05-18T10:27:26.718Z,9.90
2023-05-18T10:29:55.237Z,6.65
2023-05-18T10:32:25.462Z,10.90
2023-05-18T10:34:56.885Z,8.10
2023-05-18T10:37:24.548Z,11.57
2023-05-18T10:39:52.297Z,8.52
2023-05-18T10:42:19.963Z,13.68
2023-05-18T10:44:48.168Z,16.08
2023-05-18T10:47:15.871Z,13.82
2023-05-18T10:49:49.874Z,11.77
2023-05-18T10:52:22.786Z,13.48
2023-05-18T10:54:49.963Z,8.60
2023-05-18T10:57:20.185Z,8.68
2023-05-18T10:59:48.610Z,12.52
2023-05-18T11:02:18.659Z,10.77
2023-05-18T11:04:53.350Z,9.82
2023-05-18T11:07:21.663Z,7.97
2023-05-18T11:09:49.960Z,12.25
2023-05-18T11:12:18.665Z,12.73
2023-05-18T11:14:54.978Z,9.75
2023-05-18T11:17:26.871Z,10.80
2023-05-18T11:20:09.157Z,10.32
2023-05-18T11:22:58.250Z,9.63
2023-05-18T11:25:27.974Z,8.90
2023-05-18T11:28:14.029Z,8.23
2023-05-18T11:30:40.942Z,10.15
2023-05-18T11:33:22.776Z,6.45
2023-05-18T11:36:08.936Z,8.57
2023-05-18T11:38:46.242Z,11.68
2023-05-18T11:41:36.790Z,8.35
2023-05-18T11:44:25.540Z,10.05
2023-05-18T11:47:01.818Z,9.25
2023-05-18T11:49:48.772Z,7.78
2023-05-18T11:52:20.795Z,6.72
2023-05-18T11:54:52.278Z,8.38
2023-05-18T11:57:21.062Z,9.85
2023-05-18T11:59:49.176Z,5.95
2023-05-18T12:02:22.498Z,8.85
2023-05-18T12:04:53.350Z,10.85
2023-05-18T12:07:21.211Z,8.43
2023-05-18T12:09:48.762Z,7.57
2023-05-18T12:12:20.202Z,8.13
2023-05-18T12:14:57.371Z,8.80
2023-05-18T12:17:43.093Z,7.00
2023-05-18T12:20:18.411Z,9.18
2023-05-18T12:22:52.306Z,8.23
2023-05-18T12:25:24.625Z,6.38
2023-05-18T12:27:53.120Z,7.88
2023-05-18T12:30:22.938Z,8.27
2023-05-18T12:32:55.483Z,10.23
2023-05-18T12:35:23.906Z,6.60
2023-05-18T12:37:51.326Z,8.32
2023-05-18T12:40:20.032Z,7.75
2023-05-18T12:42:54.658Z,10.82
2023-05-18T12:45:24.534Z,7.95
2023-05-18T12:47:55.484Z,6.75
2023-05-18T12:50:25.658Z,6.07
2023-05-18T12:52:52.929Z,8.68
2023-05-18T12:55:25.467Z,10.38
2023-05-18T12:58:19.200Z,9.75
2023-05-18T13:00:47.893Z,8.95
2023-05-18T13:03:22.233Z,8.13
2023-05-18T13:06:08.132Z,11.13
2023-05-18T13:08:36.799Z,7.07
2023-05-18T13:13:38.907Z,9.35
2023-05-18T13:16:15.385Z,10.75
2023-05-18T13:18:46.897Z,13.40
2023-05-18T13:21:13.935Z,11.32
2023-05-18T13:23:41.019Z,9.05
2023-05-18T13:26:08.121Z,6.97
2023-05-18T13:28:36.060Z,10.38
2023-05-18T13:31:03.132Z,10.82
2023-05-18T13:33:30.105Z,8.73
2023-05-18T13:35:57.091Z,10.82
2023-05-18T13:38:24.089Z,8.77
2023-05-18T13:40:51.127Z,7.68
2023-05-18T13:43:18.100Z,11.57
2023-05-18T13:45:45.110Z,9.23
2023-05-18T13:48:14.645Z,9.57
2023-05-18T13:50:42.845Z,10.30
2023-05-18T13:53:09.955Z,9.27
2023-05-18T13:55:37.402Z,10.15
2023-05-18T13:58:04.468Z,10.48
2023-05-18T14:00:34.089Z,10.07
2023-05-18T14:03:01.485Z,8.25
2023-05-18T14:05:29.067Z,5.60
2023-05-18T14:07:56.850Z,8.05
2023-05-18T14:10:24.054Z,8.30
2023-05-18T14:12:51.106Z,8.15
2023-05-18T14:15:18.102Z,7.88
2023-05-18T14:17:45.478Z,10.02
2023-05-18T14:20:12.948Z,10.65
2023-05-18T14:22:40.370Z,11.93
2023-05-18T14:25:07.739Z,8.40
2023-05-18T14:27:34.676Z,6.57
2023-05-18T14:30:01.745Z,7.68
2023-05-18T14:32:28.973Z,7.05
2023-05-18T14:34:58.086Z,9.48
2023-05-18T14:37:25.605Z,8.55
2023-05-18T14:39:52.692Z,8.63
2023-05-18T14:42:19.878Z,6.57
2023-05-18T14:44:47.082Z,7.03
2023-05-18T14:47:14.033Z,11.57
2023-05-18T14:49:41.047Z,9.82
2023-05-18T14:52:08.281Z,5.15
2023-05-18T14:54:35.410Z,8.27
2023-05-18T14:57:02.519Z,10.82
2023-05-18T14:59:29.548Z,8.30
2023-05-18T15:01:56.600Z,9.60
2023-05-18T15:04:24.968Z,7.15
2023-05-18T15:06:52.357Z,9.10
2023-05-18T15:09:19.378Z,9.10
2023-05-18T15:11:46.613Z,13.18
2023-05-18T15:14:13.787Z,7.78
2023-05-18T15:16:40.966Z,6.93
2023-05-18T15:19:08.060Z,9.35
2023-05-18T15:21:35.080Z,9.57
2023-05-18T15:24:02.120Z,8.13
2023-05-18T15:26:29.190Z,5.68
2023-05-18T15:28:56.761Z,5.53
2023-05-18T15:31:23.723Z,10.02
2023-05-18T15:33:50.704Z,8.10
2023-05-18T15:36:17.897Z,6.57
2023-05-18T15:38:45.195Z,11.43
2023-05-18T15:41:12.220Z,7.28
2023-05-18T15:43:40.144Z,5.15
2023-05-18T15:46:07.345Z,6.35
2023-05-18T15:48:34.682Z,6.53
2023-05-18T15:51:01.723Z,8.43
2023-05-18T15:53:28.720Z,7.38
2023-05-18T15:55:58.683Z,7.43
2023-05-18T15:58:26.715Z,7.20
2023-05-18T16:00:54.027Z,7.70
2023-05-18T16:03:22.254Z,9.60
2023-05-18T16:05:50.254Z,6.00
2023-05-18T16:08:17.239Z,9.27
2023-05-18T16:10:44.385Z,5.95
2023-05-18T16:13:11.562Z,9.43
2023-05-18T16:15:38.537Z,11.60
2023-05-18T16:18:05.783Z,6.95
2023-05-18T16:20:33.019Z,8.77
2023-05-18T16:23:00.492Z,9.25
2023-05-18T16:25:28.823Z,9.65
2023-05-18T16:27:56.054Z,6.43
2023-05-18T16:30:23.183Z,9.45
2023-05-18T16:32:50.511Z,8.82
2023-05-18T16:35:17.643Z,11.07
2023-05-18T16:37:44.625Z,7.40
2023-05-18T16:40:11.773Z,11.45
2023-05-18T16:42:38.793Z,8.73
2023-05-18T16:45:06.065Z,5.32
2023-05-18T16:47:33.117Z,7.00
2023-05-18T16:50:00.572Z,7.75
2023-05-18T16:52:27.677Z,9.57
2023-05-18T16:54:55.036Z,7.68
2023-05-18T16:57:22.429Z,7.60
2023-05-18T16:59:49.784Z,6.90
2023-05-18T17:02:18.082Z,9.25
2023-05-18T17:04:46.146Z,8.20
2023-05-18T17:07:13.519Z,11.05
2023-05-18T17:09:42.393Z,10.05
2023-05-18T17:12:11.059Z,6.20
2023-05-18T17:14:38.491Z,9.13
2023-05-18T17:17:06.843Z,6.15
2023-05-18T17:19:35.145Z,9.65
2023-05-18T17:22:03.901Z,6.80
2023-05-18T17:24:31.647Z,9.48
2023-05-18T17:26:58.870Z,6.47
2023-05-18T17:29:27.191Z,7.25
2023-05-18T17:31:54.639Z,8.32
2023-05-18T17:34:22.747Z,9.90
2023-05-18T17:36:50.131Z,8.32
2023-05-18T17:39:17.322Z,8.95
2023-05-18T17:41:44.370Z,9.70
2023-05-18T17:44:14.249Z,9.93
2023-05-18T17:46:41.887Z,5.72
2023-05-18T17:49:09.221Z,8.25
2023-05-18T17:51:36.246Z,4.45
2023-05-18T17:54:03.554Z,8.75
2023-05-18T17:56:31.699Z,11.57
2023-05-18T17:58:59.310Z,11.13
2023-05-18T18:01:27.325Z,9.88
2023-05-18T18:03:55.353Z,9.52
2023-05-18T18:06:22.999Z,11.75
2023-05-18T18:08:54.662Z,8.25
2023-05-18T18:11:22.239Z,10.13
2023-05-18T18:13:49.626Z,9.32
2023-05-18T18:16:18.016Z,9.05
2023-05-18T18:18:45.712Z,12.10
2023-05-18T18:21:12.947Z,6.73
2023-05-18T18:23:40.763Z,8.90
2023-05-18T18:26:08.563Z,8.57
2023-05-18T18:28:35.982Z,8.43
2023-05-18T18:31:03.566Z,10.83
2023-05-18T18:33:32.516Z,7.07
2023-05-18T18:35:59.646Z,9.43
2023-05-18T18:38:29.522Z,6.30
2023-05-18T18:41:01.474Z,11.33
2023-05-18T18:43:28.996Z,9.67
2023-05-18T18:45:57.357Z,7.67
2023-05-18T18:48:24.989Z,9.83
2023-05-18T18:50:52.642Z,8.70
2023-05-18T18:53:19.635Z,10.13
2023-05-18T18:55:47.075Z,6.23
2023-05-18T18:58:14.478Z,9.80
2023-05-18T19:00:41.722Z,11.17
2023-05-18T19:03:14.544Z,7.17
2023-05-18T19:05:42.006Z,7.97
2023-05-18T19:08:09.017Z,9.77
2023-05-18T19:10:36.078Z,9.30
2023-05-18T19:13:05.954Z,12.03
2023-05-18T19:15:36.373Z,10.30
2023-05-18T19:18:04.121Z,8.17
2023-05-18T19:20:31.221Z,6.73
2023-05-18T19:22:58.381Z,6.67
2023-05-18T19:25:26.368Z,6.27
2023-05-18T19:27:54.275Z,7.03
2023-05-18T19:30:22.532Z,8.97
2023-05-18T19:32:50.721Z,3.87
2023-05-18T19:35:20.063Z,6.90
2023-05-18T19:37:47.665Z,10.00
2023-05-18T19:40:14.823Z,4.70
2023-05-18T19:42:41.905Z,7.07
2023-05-18T19:45:09.096Z,5.43
2023-05-18T19:47:36.807Z,7.40
2023-05-18T19:50:04.730Z,7.33
2023-05-18T19:52:33.659Z,5.67
2023-05-18T19:55:01.918Z,7.90
2023-05-18T19:57:29.133Z,10.77
2023-05-18T19:59:56.296Z,8.53
2023-05-18T20:02:23.313Z,6.07
2023-05-18T20:04:53.311Z,6.57
2023-05-18T20:07:21.693Z,9.17
2023-05-18T20:09:48.756Z,5.87
2023-05-18T20:12:15.981Z,7.30
2023-05-18T20:14:43.536Z,7.53
2023-05-18T20:17:10.700Z,7.57
2023-05-18T20:19:37.864Z,6.50
2023-05-18T20:22:05.250Z,7.33
2023-05-18T20:24:32.696Z,7.83
2023-05-18T20:26:59.743Z,6.97
2023-05-18T20:29:26.980Z,7.90
2023-05-18T20:31:55.103Z,6.07
2023-05-18T20:34:22.540Z,5.60
2023-05-18T20:36:49.498Z,6.37
2023-05-18T20:39:16.509Z,8.10
2023-05-18T20:41:43.496Z,10.33
2023-05-18T20:44:11.297Z,9.97
2023-05-18T20:46:42.696Z,12.67
2023-05-18T20:49:12.298Z,9.53
2023-05-18T20:51:39.358Z,8.93
2023-05-18T20:54:06.975Z,7.47
2023-05-18T20:56:35.890Z,8.20
2023-05-18T20:59:06.171Z,11.40
2023-05-18T21:01:39.235Z,8.20
2023-05-18T21:04:07.116Z,8.67
2023-05-18T21:06:34.529Z,8.70
2023-05-18T21:09:01.697Z,7.83
2023-05-18T21:11:28.779Z,9.80
2023-05-18T21:13:55.944Z,8.13
2023-05-18T21:16:23.068Z,8.33
2023-05-18T21:18:50.317Z,10.73
2023-05-18T21:21:17.254Z,9.53
2023-05-18T21:23:44.449Z,7.33
2023-05-18T21:26:11.562Z,10.47
2023-05-18T21:28:38.459Z,9.57
2023-05-18T21:31:05.877Z,11.87
2023-05-18T21:33:32.905Z,6.33
2023-05-18T21:36:01.598Z,6.40
2023-05-18T21:38:28.915Z,6.80
2023-05-18T21:40:58.924Z,6.57
2023-05-18T21:43:25.970Z,7.30
2023-05-18T21:45:53.085Z,9.63
2023-05-18T21:48:20.017Z,8.37
2023-05-18T21:50:47.098Z,9.27
2023-05-18T21:53:14.175Z,7.97
2023-05-18T21:55:41.155Z,5.00
2023-05-18T21:58:08.129Z,7.37
2023-05-18T22:00:35.458Z,6.27
2023-05-18T22:03:02.796Z,7.37
2023-05-18T22:05:30.035Z,6.87
2023-05-18T22:07:58.964Z,9.07
2023-05-18T22:10:25.987Z,7.80
2023-05-18T22:12:52.956Z,7.27
2023-05-18T22:15:22.384Z,7.47
2023-05-18T22:17:49.573Z,9.60
2023-05-18T22:20:17.230Z,7.77
2023-05-18T22:22:44.426Z,9.00
2023-05-18T22:25:11.491Z,9.53
2023-05-18T22:27:38.772Z,11.03
2023-05-18T22:30:07.223Z,8.27
2023-05-18T22:32:34.590Z,7.00
2023-05-18T22:35:02.006Z,8.63
2023-05-18T22:37:28.968Z,6.37
2023-05-18T22:39:55.881Z,8.60
2023-05-18T22:42:22.821Z,6.70
2023-05-18T22:44:49.799Z,10.07
2023-05-18T22:47:20.064Z,7.33
2023-05-18T22:49:47.612Z,7.37
2023-05-18T22:52:14.537Z,4.97
2023-05-18T22:54:41.492Z,6.53
2023-05-18T22:57:08.497Z,6.13
2023-05-18T22:59:36.779Z,8.60
2023-05-18T23:02:04.751Z,7.10
2023-05-18T23:04:33.415Z,7.60
2023-05-18T23:07:01.702Z,9.53
2023-05-18T23:09:30.480Z,8.53
2023-05-18T23:11:59.647Z,9.83
2023-05-18T23:14:31.284Z,10.13
2023-05-18T23:16:58.488Z,6.37
2023-05-18T23:19:26.974Z,6.97
2023-05-18T23:21:54.443Z,6.07
2023-05-18T23:24:22.027Z,7.23
2023-05-18T23:26:48.969Z,9.73
2023-05-18T23:29:15.944Z,6.33
2023-05-18T23:31:43.044Z,8.40
2023-05-18T23:34:10.379Z,6.63
2023-05-18T23:36:39.650Z,9.10
2023-05-18T23:39:07.326Z,7.60
2023-05-18T23:41:35.886Z,10.10
2023-05-18T23:44:03.664Z,7.70
2023-05-18T23:46:31.752Z,6.83
2023-05-18T23:48:59.972Z,7.07
2023-05-18T23:51:32.054Z,8.03
2023-05-18T23:53:59.804Z,6.53
2023-05-18T23:56:27.240Z,5.90
2023-05-18T23:58:54.518Z,7.40
